sensor_id;sensor_type;location;lat;lon;timestamp;P1;durP1;ratioP1;P2;durP2;ratioP2
35380;SDS011;21486;51.916;8.378;2022-11-11T00:00:22;10.60;;;4.75;;
35380;SDS011;21486;51.916;8.378;2022-11-11T00:02:47;8.73;;;4.18;;
35380;SDS011;21486;51.916;8.378;2022-11-11T00:05:14;13.25;;;4.35;;
35380;SDS011;21486;51.916;8.378;2022-11-11T00:07:40;9.30;;;4.47;;
35380;SDS011;21486;51.916;8.378;2022-11-11T00:10:06;10.10;;;4.80;;
35380;SDS011;21486;51.916;8.378;2022-11-11T00:12:32;9.80;;;4.33;;
35380;SDS011;21486;51.916;8.378;2022-11-11T00:14:58;14.77;;;4.10;;
35380;SDS011;21486;51.916;8.378;2022-11-11T00:17:24;11.98;;;4.35;;
35380;SDS011;21486;51.916;8.378;2022-11-11T00:20:09;9.82;;;3.65;;
35380;SDS011;21486;51.916;8.378;2022-11-11T00:22:53;11.93;;;4.30;;
35380;SDS011;21486;51.916;8.378;2022-11-11T00:25:38;10.63;;;4.13;;
35380;SDS011;21486;51.916;8.378;2022-11-11T00:28:03;11.20;;;3.93;;
35380;SDS011;21486;51.916;8.378;2022-11-11T00:30:29;9.17;;;3.87;;
35380;SDS011;21486;51.916;8.378;2022-11-11T00:32:55;9.93;;;3.87;;
35380;SDS011;21486;51.916;8.378;2022-11-11T00:35:21;11.43;;;4.47;;
35380;SDS011;21486;51.916;8.378;2022-11-11T00:38:08;9.55;;;3.80;;
35380;SDS011;21486;51.916;8.378;2022-11-11T00:40:35;9.98;;;4.00;;
35380;SDS011;21486;51.916;8.378;2022-11-11T00:43:01;10.45;;;4.30;;
35380;SDS011;21486;51.916;8.378;2022-11-11T00:45:26;11.43;;;4.25;;
35380;SDS011;21486;51.916;8.378;2022-11-11T00:47:52;10.30;;;4.03;;
35380;SDS011;21486;51.916;8.378;2022-11-11T00:50:36;15.65;;;4.10;;
35380;SDS011;21486;51.916;8.378;2022-11-11T00:53:21;9.63;;;4.32;;
35380;SDS011;21486;51.916;8.378;2022-11-11T00:55:48;13.98;;;4.30;;
35380;SDS011;21486;51.916;8.378;2022-11-11T00:58:13;9.85;;;3.85;;
35380;SDS011;21486;51.916;8.378;2022-11-11T01:00:41;11.25;;;4.20;;
35380;SDS011;21486;51.916;8.378;2022-11-11T01:03:07;12.75;;;4.50;;
35380;SDS011;21486;51.916;8.378;2022-11-11T01:05:33;11.55;;;3.95;;
35380;SDS011;21486;51.916;8.378;2022-11-11T01:07:58;10.07;;;4.37;;
35380;SDS011;21486;51.916;8.378;2022-11-11T01:10:24;15.10;;;4.67;;
35380;SDS011;21486;51.916;8.378;2022-11-11T01:13:18;10.45;;;4.57;;
35380;SDS011;21486;51.916;8.378;2022-11-11T01:15:49;11.37;;;4.10;;
35380;SDS011;21486;51.916;8.378;2022-11-11T01:18:16;10.77;;;4.55;;
35380;SDS011;21486;51.916;8.378;2022-11-11T01:20:44;13.77;;;4.85;;
35380;SDS011;21486;51.916;8.378;2022-11-11T01:23:11;12.55;;;4.82;;
35380;SDS011;21486;51.916;8.378;2022-11-11T01:25:38;12.82;;;5.03;;
35380;SDS011;21486;51.916;8.378;2022-11-11T01:28:05;10.93;;;4.57;;
35380;SDS011;21486;51.916;8.378;2022-11-11T01:33:02;13.70;;;5.82;;
35380;SDS011;21486;51.916;8.378;2022-11-11T01:35:28;12.18;;;5.55;;
35380;SDS011;21486;51.916;8.378;2022-11-11T01:37:53;13.70;;;5.93;;
35380;SDS011;21486;51.916;8.378;2022-11-11T01:40:20;13.20;;;5.72;;
35380;SDS011;21486;51.916;8.378;2022-11-11T01:42:52;17.33;;;5.65;;
35380;SDS011;21486;51.916;8.378;2022-11-11T01:48:18;13.13;;;5.22;;
35380;SDS011;21486;51.916;8.378;2022-11-11T01:51:10;12.02;;;4.75;;
35380;SDS011;21486;51.916;8.378;2022-11-11T01:53:48;13.02;;;5.43;;
35380;SDS011;21486;51.916;8.378;2022-11-11T01:56:19;12.88;;;4.55;;
35380;SDS011;21486;51.916;8.378;2022-11-11T01:58:46;12.70;;;4.97;;
35380;SDS011;21486;51.916;8.378;2022-11-11T02:01:12;13.65;;;5.10;;
35380;SDS011;21486;51.916;8.378;2022-11-11T02:03:39;10.43;;;5.00;;
35380;SDS011;21486;51.916;8.378;2022-11-11T02:06:06;11.75;;;4.65;;
35380;SDS011;21486;51.916;8.378;2022-11-11T02:08:33;14.43;;;5.10;;
35380;SDS011;21486;51.916;8.378;2022-11-11T02:11:08;9.77;;;5.05;;
35380;SDS011;21486;51.916;8.378;2022-11-11T02:14:00;13.00;;;5.22;;
35380;SDS011;21486;51.916;8.378;2022-11-11T02:16:45;11.52;;;5.22;;
35380;SDS011;21486;51.916;8.378;2022-11-11T02:19:11;12.13;;;4.90;;
35380;SDS011;21486;51.916;8.378;2022-11-11T02:21:41;13.50;;;5.20;;
35380;SDS011;21486;51.916;8.378;2022-11-11T02:24:11;11.73;;;5.13;;
35380;SDS011;21486;51.916;8.378;2022-11-11T02:26:41;10.18;;;5.63;;
35380;SDS011;21486;51.916;8.378;2022-11-11T02:29:10;14.70;;;5.43;;
35380;SDS011;21486;51.916;8.378;2022-11-11T02:31:39;11.02;;;5.05;;
35380;SDS011;21486;51.916;8.378;2022-11-11T02:34:05;11.70;;;5.30;;
35380;SDS011;21486;51.916;8.378;2022-11-11T02:36:31;10.75;;;4.93;;
35380;SDS011;21486;51.916;8.378;2022-11-11T02:38:57;12.65;;;4.80;;
35380;SDS011;21486;51.916;8.378;2022-11-11T02:41:23;13.27;;;5.68;;
35380;SDS011;21486;51.916;8.378;2022-11-11T02:44:06;12.70;;;5.10;;
35380;SDS011;21486;51.916;8.378;2022-11-11T02:46:32;14.77;;;4.90;;
35380;SDS011;21486;51.916;8.378;2022-11-11T02:48:58;11.43;;;5.10;;
35380;SDS011;21486;51.916;8.378;2022-11-11T02:51:23;11.83;;;5.07;;
35380;SDS011;21486;51.916;8.378;2022-11-11T02:53:49;10.20;;;5.47;;
35380;SDS011;21486;51.916;8.378;2022-11-11T02:56:14;11.57;;;5.05;;
35380;SDS011;21486;51.916;8.378;2022-11-11T02:59:00;10.43;;;4.80;;
35380;SDS011;21486;51.916;8.378;2022-11-11T03:01:25;12.33;;;5.10;;
35380;SDS011;21486;51.916;8.378;2022-11-11T03:03:51;11.80;;;4.60;;
35380;SDS011;21486;51.916;8.378;2022-11-11T03:06:16;12.10;;;4.75;;
35380;SDS011;21486;51.916;8.378;2022-11-11T03:08:42;9.13;;;4.90;;
35380;SDS011;21486;51.916;8.378;2022-11-11T03:11:08;11.07;;;5.30;;
35380;SDS011;21486;51.916;8.378;2022-11-11T03:13:33;10.10;;;4.40;;
35380;SDS011;21486;51.916;8.378;2022-11-11T03:15:59;12.87;;;5.33;;
35380;SDS011;21486;51.916;8.378;2022-11-11T03:18:24;10.63;;;4.30;;
35380;SDS011;21486;51.916;8.378;2022-11-11T03:20:50;10.32;;;4.60;;
35380;SDS011;21486;51.916;8.378;2022-11-11T03:23:30;11.77;;;4.63;;
35380;SDS011;21486;51.916;8.378;2022-11-11T03:25:56;13.93;;;5.22;;
35380;SDS011;21486;51.916;8.378;2022-11-11T03:28:22;12.50;;;5.00;;
35380;SDS011;21486;51.916;8.378;2022-11-11T03:30:50;10.02;;;4.85;;
35380;SDS011;21486;51.916;8.378;2022-11-11T03:33:16;11.60;;;5.63;;
35380;SDS011;21486;51.916;8.378;2022-11-11T03:35:42;14.10;;;5.13;;
35380;SDS011;21486;51.916;8.378;2022-11-11T03:38:11;13.90;;;4.93;;
35380;SDS011;21486;51.916;8.378;2022-11-11T03:40:43;12.13;;;5.20;;
35380;SDS011;21486;51.916;8.378;2022-11-11T03:43:10;15.43;;;5.00;;
35380;SDS011;21486;51.916;8.378;2022-11-11T03:45:41;12.55;;;5.00;;
35380;SDS011;21486;51.916;8.378;2022-11-11T03:48:07;13.05;;;5.57;;
35380;SDS011;21486;51.916;8.378;2022-11-11T03:50:33;14.03;;;5.17;;
35380;SDS011;21486;51.916;8.378;2022-11-11T03:52:59;12.90;;;5.37;;
35380;SDS011;21486;51.916;8.378;2022-11-11T03:55:25;11.40;;;4.80;;
35380;SDS011;21486;51.916;8.378;2022-11-11T03:57:51;10.13;;;4.70;;
35380;SDS011;21486;51.916;8.378;2022-11-11T04:00:17;11.15;;;5.00;;
35380;SDS011;21486;51.916;8.378;2022-11-11T04:03:12;9.55;;;4.95;;
35380;SDS011;21486;51.916;8.378;2022-11-11T04:05:58;12.73;;;5.07;;
35380;SDS011;21486;51.916;8.378;2022-11-11T04:08:42;12.60;;;4.85;;
35380;SDS011;21486;51.916;8.378;2022-11-11T04:11:37;12.13;;;5.30;;
35380;SDS011;21486;51.916;8.378;2022-11-11T04:14:08;14.67;;;5.57;;
35380;SDS011;21486;51.916;8.378;2022-11-11T04:16:53;11.15;;;4.68;;
35380;SDS011;21486;51.916;8.378;2022-11-11T04:19:19;8.35;;;4.90;;
35380;SDS011;21486;51.916;8.378;2022-11-11T04:22:04;14.60;;;5.00;;
35380;SDS011;21486;51.916;8.378;2022-11-11T04:24:29;11.33;;;4.73;;
35380;SDS011;21486;51.916;8.378;2022-11-11T04:27:15;12.63;;;4.95;;
35380;SDS011;21486;51.916;8.378;2022-11-11T04:29:41;12.03;;;5.37;;
35380;SDS011;21486;51.916;8.378;2022-11-11T04:35:00;10.15;;;4.80;;
35380;SDS011;21486;51.916;8.378;2022-11-11T04:37:28;13.38;;;5.05;;
35380;SDS011;21486;51.916;8.378;2022-11-11T04:39:55;9.75;;;4.90;;
35380;SDS011;21486;51.916;8.378;2022-11-11T04:42:39;11.07;;;4.55;;
35380;SDS011;21486;51.916;8.378;2022-11-11T04:45:05;9.75;;;4.70;;
35380;SDS011;21486;51.916;8.378;2022-11-11T04:47:58;10.70;;;4.88;;
35380;SDS011;21486;51.916;8.378;2022-11-11T04:50:26;11.02;;;4.70;;
35380;SDS011;21486;51.916;8.378;2022-11-11T04:52:54;13.23;;;5.00;;
35380;SDS011;21486;51.916;8.378;2022-11-11T04:55:19;11.70;;;4.80;;
35380;SDS011;21486;51.916;8.378;2022-11-11T04:58:03;12.07;;;4.90;;
35380;SDS011;21486;51.916;8.378;2022-11-11T05:00:29;9.20;;;4.40;;
35380;SDS011;21486;51.916;8.378;2022-11-11T05:02:55;9.60;;;4.43;;
35380;SDS011;21486;51.916;8.378;2022-11-11T05:05:39;12.13;;;4.60;;
35380;SDS011;21486;51.916;8.378;2022-11-11T05:08:38;8.88;;;4.40;;
35380;SDS011;21486;51.916;8.378;2022-11-11T05:11:29;12.90;;;5.10;;
35380;SDS011;21486;51.916;8.378;2022-11-11T05:13:57;12.90;;;5.40;;
35380;SDS011;21486;51.916;8.378;2022-11-11T05:16:47;14.32;;;4.85;;
35380;SDS011;21486;51.916;8.378;2022-11-11T05:19:33;10.75;;;4.70;;
35380;SDS011;21486;51.916;8.378;2022-11-11T05:22:21;10.35;;;4.90;;
35380;SDS011;21486;51.916;8.378;2022-11-11T05:24:50;13.15;;;4.40;;
35380;SDS011;21486;51.916;8.378;2022-11-11T05:27:34;9.43;;;4.35;;
35380;SDS011;21486;51.916;8.378;2022-11-11T05:30:00;9.07;;;4.43;;
35380;SDS011;21486;51.916;8.378;2022-11-11T05:32:26;13.45;;;4.80;;
35380;SDS011;21486;51.916;8.378;2022-11-11T05:34:52;9.77;;;4.43;;
35380;SDS011;21486;51.916;8.378;2022-11-11T05:37:17;14.57;;;5.40;;
35380;SDS011;21486;51.916;8.378;2022-11-11T05:39:43;11.70;;;4.50;;
35380;SDS011;21486;51.916;8.378;2022-11-11T05:42:09;10.75;;;4.68;;
35380;SDS011;21486;51.916;8.378;2022-11-11T05:44:35;14.52;;;4.93;;
35380;SDS011;21486;51.916;8.378;2022-11-11T05:47:01;10.30;;;4.82;;
35380;SDS011;21486;51.916;8.378;2022-11-11T05:49:27;8.55;;;4.28;;
35380;SDS011;21486;51.916;8.378;2022-11-11T05:51:52;12.57;;;4.57;;
35380;SDS011;21486;51.916;8.378;2022-11-11T05:54:19;10.02;;;4.53;;
35380;SDS011;21486;51.916;8.378;2022-11-11T05:56:45;9.90;;;4.97;;
35380;SDS011;21486;51.916;8.378;2022-11-11T05:59:11;9.73;;;4.27;;
35380;SDS011;21486;51.916;8.378;2022-11-11T06:01:36;10.67;;;4.40;;
35380;SDS011;21486;51.916;8.378;2022-11-11T06:04:02;14.17;;;5.00;;
35380;SDS011;21486;51.916;8.378;2022-11-11T06:06:29;8.48;;;4.47;;
35380;SDS011;21486;51.916;8.378;2022-11-11T06:08:55;10.93;;;4.50;;
35380;SDS011;21486;51.916;8.378;2022-11-11T06:11:21;11.17;;;4.73;;
35380;SDS011;21486;51.916;8.378;2022-11-11T06:13:47;12.95;;;4.30;;
35380;SDS011;21486;51.916;8.378;2022-11-11T06:16:12;9.43;;;4.45;;
35380;SDS011;21486;51.916;8.378;2022-11-11T06:18:38;10.30;;;4.57;;
35380;SDS011;21486;51.916;8.378;2022-11-11T06:21:04;10.48;;;4.80;;
35380;SDS011;21486;51.916;8.378;2022-11-11T06:23:30;10.82;;;4.53;;
35380;SDS011;21486;51.916;8.378;2022-11-11T06:25:56;10.87;;;5.10;;
35380;SDS011;21486;51.916;8.378;2022-11-11T06:28:37;11.73;;;4.90;;
35380;SDS011;21486;51.916;8.378;2022-11-11T06:31:18;9.73;;;4.70;;
35380;SDS011;21486;51.916;8.378;2022-11-11T06:33:47;10.32;;;4.55;;
35380;SDS011;21486;51.916;8.378;2022-11-11T06:36:13;12.77;;;5.07;;
35380;SDS011;21486;51.916;8.378;2022-11-11T06:38:40;13.33;;;4.73;;
35380;SDS011;21486;51.916;8.378;2022-11-11T06:41:06;9.10;;;4.85;;
35380;SDS011;21486;51.916;8.378;2022-11-11T06:43:34;14.52;;;7.25;;
35380;SDS011;21486;51.916;8.378;2022-11-11T06:46:00;16.50;;;7.95;;
35380;SDS011;21486;51.916;8.378;2022-11-11T06:48:26;13.60;;;5.20;;
35380;SDS011;21486;51.916;8.378;2022-11-11T06:50:53;12.43;;;5.47;;
35380;SDS011;21486;51.916;8.378;2022-11-11T06:53:19;12.45;;;6.03;;
35380;SDS011;21486;51.916;8.378;2022-11-11T06:55:46;13.73;;;6.13;;
35380;SDS011;21486;51.916;8.378;2022-11-11T06:58:13;11.80;;;5.57;;
35380;SDS011;21486;51.916;8.378;2022-11-11T07:00:41;15.57;;;7.88;;
35380;SDS011;21486;51.916;8.378;2022-11-11T07:03:08;16.60;;;7.70;;
35380;SDS011;21486;51.916;8.378;2022-11-11T07:05:35;13.73;;;5.35;;
35380;SDS011;21486;51.916;8.378;2022-11-11T07:08:02;14.77;;;5.53;;
35380;SDS011;21486;51.916;8.378;2022-11-11T07:10:29;11.10;;;4.97;;
35380;SDS011;21486;51.916;8.378;2022-11-11T07:12:55;22.23;;;5.82;;
35380;SDS011;21486;51.916;8.378;2022-11-11T07:15:21;18.05;;;5.88;;
35380;SDS011;21486;51.916;8.378;2022-11-11T07:17:46;13.68;;;5.40;;
35380;SDS011;21486;51.916;8.378;2022-11-11T07:20:12;15.97;;;5.30;;
35380;SDS011;21486;51.916;8.378;2022-11-11T07:22:37;19.53;;;5.90;;
35380;SDS011;21486;51.916;8.378;2022-11-11T07:25:03;21.37;;;6.23;;
35380;SDS011;21486;51.916;8.378;2022-11-11T07:27:29;37.25;;;6.70;;
35380;SDS011;21486;51.916;8.378;2022-11-11T07:29:55;16.35;;;5.82;;
35380;SDS011;21486;51.916;8.378;2022-11-11T07:32:21;18.38;;;5.55;;
35380;SDS011;21486;51.916;8.378;2022-11-11T07:34:46;24.83;;;5.83;;
35380;SDS011;21486;51.916;8.378;2022-11-11T07:37:13;15.02;;;5.18;;
35380;SDS011;21486;51.916;8.378;2022-11-11T07:39:38;19.80;;;4.80;;
35380;SDS011;21486;51.916;8.378;2022-11-11T07:42:04;20.73;;;4.83;;
35380;SDS011;21486;51.916;8.378;2022-11-11T07:44:30;20.10;;;5.10;;
35380;SDS011;21486;51.916;8.378;2022-11-11T07:46:55;11.73;;;4.40;;
35380;SDS011;21486;51.916;8.378;2022-11-11T07:49:21;20.67;;;5.15;;
35380;SDS011;21486;51.916;8.378;2022-11-11T07:51:46;17.52;;;4.97;;
35380;SDS011;21486;51.916;8.378;2022-11-11T07:54:12;20.10;;;4.90;;
35380;SDS011;21486;51.916;8.378;2022-11-11T07:56:37;24.70;;;5.53;;
35380;SDS011;21486;51.916;8.378;2022-11-11T07:59:03;16.00;;;4.50;;
35380;SDS011;21486;51.916;8.378;2022-11-11T08:01:29;10.83;;;4.50;;
35380;SDS011;21486;51.916;8.378;2022-11-11T08:03:54;9.82;;;4.07;;
35380;SDS011;21486;51.916;8.378;2022-11-11T08:06:20;9.20;;;4.25;;
35380;SDS011;21486;51.916;8.378;2022-11-11T08:08:46;15.10;;;5.00;;
35380;SDS011;21486;51.916;8.378;2022-11-11T08:11:13;9.07;;;4.10;;
35380;SDS011;21486;51.916;8.378;2022-11-11T08:13:39;10.65;;;4.20;;
35380;SDS011;21486;51.916;8.378;2022-11-11T08:16:06;9.32;;;4.22;;
35380;SDS011;21486;51.916;8.378;2022-11-11T08:18:32;9.40;;;3.97;;
35380;SDS011;21486;51.916;8.378;2022-11-11T08:20:59;11.75;;;4.18;;
35380;SDS011;21486;51.916;8.378;2022-11-11T08:23:25;9.82;;;3.88;;
35380;SDS011;21486;51.916;8.378;2022-11-11T08:26:02;11.20;;;4.03;;
35380;SDS011;21486;51.916;8.378;2022-11-11T08:28:30;11.55;;;4.07;;
35380;SDS011;21486;51.916;8.378;2022-11-11T08:30:57;10.67;;;3.87;;
35380;SDS011;21486;51.916;8.378;2022-11-11T08:33:25;11.18;;;3.45;;
35380;SDS011;21486;51.916;8.378;2022-11-11T08:35:52;7.18;;;3.33;;
35380;SDS011;21486;51.916;8.378;2022-11-11T08:38:18;9.30;;;3.75;;
35380;SDS011;21486;51.916;8.378;2022-11-11T08:40:45;8.52;;;3.20;;
35380;SDS011;21486;51.916;8.378;2022-11-11T08:43:10;10.02;;;3.40;;
35380;SDS011;21486;51.916;8.378;2022-11-11T08:45:36;11.18;;;3.65;;
35380;SDS011;21486;51.916;8.378;2022-11-11T08:48:02;7.78;;;3.30;;
35380;SDS011;21486;51.916;8.378;2022-11-11T08:50:28;9.07;;;3.70;;
35380;SDS011;21486;51.916;8.378;2022-11-11T08:52:53;9.07;;;3.25;;
35380;SDS011;21486;51.916;8.378;2022-11-11T08:55:19;5.22;;;3.10;;
35380;SDS011;21486;51.916;8.378;2022-11-11T08:57:45;8.90;;;3.30;;
35380;SDS011;21486;51.916;8.378;2022-11-11T09:00:11;9.38;;;3.10;;
35380;SDS011;21486;51.916;8.378;2022-11-11T09:02:37;8.88;;;3.47;;
35380;SDS011;21486;51.916;8.378;2022-11-11T09:05:03;7.97;;;3.22;;
35380;SDS011;21486;51.916;8.378;2022-11-11T09:07:30;12.40;;;3.95;;
35380;SDS011;21486;51.916;8.378;2022-11-11T09:09:56;10.57;;;3.50;;
35380;SDS011;21486;51.916;8.378;2022-11-11T09:12:22;9.13;;;3.60;;
35380;SDS011;21486;51.916;8.378;2022-11-11T09:14:47;11.90;;;3.70;;
35380;SDS011;21486;51.916;8.378;2022-11-11T09:17:14;7.88;;;3.65;;
35380;SDS011;21486;51.916;8.378;2022-11-11T09:19:40;10.02;;;3.60;;
35380;SDS011;21486;51.916;8.378;2022-11-11T09:22:05;12.33;;;3.67;;
35380;SDS011;21486;51.916;8.378;2022-11-11T09:24:31;9.45;;;3.47;;
35380;SDS011;21486;51.916;8.378;2022-11-11T09:26:56;12.80;;;3.30;;
35380;SDS011;21486;51.916;8.378;2022-11-11T09:29:22;7.40;;;3.13;;
35380;SDS011;21486;51.916;8.378;2022-11-11T09:31:47;9.67;;;3.20;;
35380;SDS011;21486;51.916;8.378;2022-11-11T09:34:13;10.05;;;3.63;;
35380;SDS011;21486;51.916;8.378;2022-11-11T09:36:39;9.45;;;3.58;;
35380;SDS011;21486;51.916;8.378;2022-11-11T09:39:05;6.25;;;2.78;;
35380;SDS011;21486;51.916;8.378;2022-11-11T09:44:02;6.97;;;2.92;;
35380;SDS011;21486;51.916;8.378;2022-11-11T09:49:08;7.88;;;2.72;;
35380;SDS011;21486;51.916;8.378;2022-11-11T09:57:07;8.30;;;2.78;;
35380;SDS011;21486;51.916;8.378;2022-11-11T09:59:56;10.32;;;3.15;;
35380;SDS011;21486;51.916;8.378;2022-11-11T10:02:28;5.72;;;2.47;;
35380;SDS011;21486;51.916;8.378;2022-11-11T10:05:37;6.47;;;2.35;;
35380;SDS011;21486;51.916;8.378;2022-11-11T10:08:14;7.07;;;2.92;;
35380;SDS011;21486;51.916;8.378;2022-11-11T10:10:45;7.30;;;2.22;;
35380;SDS011;21486;51.916;8.378;2022-11-11T10:13:14;8.45;;;2.38;;
35380;SDS011;21486;51.916;8.378;2022-11-11T10:15:54;7.15;;;2.20;;
35380;SDS011;21486;51.916;8.378;2022-11-11T10:18:48;5.93;;;2.53;;
35380;SDS011;21486;51.916;8.378;2022-11-11T10:21:50;4.22;;;2.20;;
35380;SDS011;21486;51.916;8.378;2022-11-11T10:24:37;7.32;;;2.50;;
35380;SDS011;21486;51.916;8.378;2022-11-11T10:27:17;7.57;;;2.50;;
35380;SDS011;21486;51.916;8.378;2022-11-11T10:29:44;5.68;;;2.53;;
35380;SDS011;21486;51.916;8.378;2022-11-11T10:32:20;5.32;;;2.30;;
35380;SDS011;21486;51.916;8.378;2022-11-11T10:34:49;7.40;;;2.47;;
35380;SDS011;21486;51.916;8.378;2022-11-11T10:37:17;5.75;;;2.20;;
35380;SDS011;21486;51.916;8.378;2022-11-11T10:39:49;5.80;;;2.30;;
35380;SDS011;21486;51.916;8.378;2022-11-11T10:42:24;6.47;;;2.35;;
35380;SDS011;21486;51.916;8.378;2022-11-11T10:44:50;7.22;;;2.30;;
35380;SDS011;21486;51.916;8.378;2022-11-11T10:47:29;6.50;;;2.53;;
35380;SDS011;21486;51.916;8.378;2022-11-11T10:50:11;7.57;;;2.27;;
35380;SDS011;21486;51.916;8.378;2022-11-11T10:52:43;4.97;;;2.00;;
35380;SDS011;21486;51.916;8.378;2022-11-11T10:58:16;5.28;;;1.70;;
35380;SDS011;21486;51.916;8.378;2022-11-11T11:00:50;4.40;;;1.60;;
35380;SDS011;21486;51.916;8.378;2022-11-11T11:03:22;3.23;;;1.60;;
35380;SDS011;21486;51.916;8.378;2022-11-11T11:06:00;3.50;;;1.50;;
35380;SDS011;21486;51.916;8.378;2022-11-11T11:08:46;4.28;;;1.60;;
35380;SDS011;21486;51.916;8.378;2022-11-11T11:11:21;5.35;;;1.42;;
35380;SDS011;21486;51.916;8.378;2022-11-11T11:13:54;4.63;;;1.40;;
35380;SDS011;21486;51.916;8.378;2022-11-11T11:16:25;3.70;;;1.33;;
35380;SDS011;21486;51.916;8.378;2022-11-11T11:21:59;6.97;;;1.60;;
35380;SDS011;21486;51.916;8.378;2022-11-11T11:24:36;3.97;;;1.35;;
35380;SDS011;21486;51.916;8.378;2022-11-11T11:27:03;3.42;;;1.48;;
35380;SDS011;21486;51.916;8.378;2022-11-11T11:29:35;4.45;;;1.60;;
35380;SDS011;21486;51.916;8.378;2022-11-11T11:32:19;7.72;;;1.50;;
35380;SDS011;21486;51.916;8.378;2022-11-11T11:34:54;5.75;;;1.48;;
35380;SDS011;21486;51.916;8.378;2022-11-11T11:37:22;4.72;;;1.33;;
35380;SDS011;21486;51.916;8.378;2022-11-11T11:39:58;7.45;;;1.20;;
35380;SDS011;21486;51.916;8.378;2022-11-11T11:42:26;7.10;;;1.42;;
35380;SDS011;21486;51.916;8.378;2022-11-11T11:44:51;8.20;;;1.38;;
35380;SDS011;21486;51.916;8.378;2022-11-11T11:53:04;5.70;;;1.67;;
35380;SDS011;21486;51.916;8.378;2022-11-11T11:55:59;3.73;;;1.47;;
35380;SDS011;21486;51.916;8.378;2022-11-11T11:58:51;4.47;;;1.52;;
35380;SDS011;21486;51.916;8.378;2022-11-11T12:01:42;9.70;;;1.33;;
35380;SDS011;21486;51.916;8.378;2022-11-11T12:04:33;6.50;;;1.60;;
35380;SDS011;21486;51.916;8.378;2022-11-11T12:15:47;6.25;;;1.75;;
35380;SDS011;21486;51.916;8.378;2022-11-11T12:20:56;2.20;;;1.08;;
35380;SDS011;21486;51.916;8.378;2022-11-11T12:23:42;6.07;;;1.25;;
35380;SDS011;21486;51.916;8.378;2022-11-11T12:29:10;17.02;;;7.40;;
35380;SDS011;21486;51.916;8.378;2022-11-11T12:31:45;4.72;;;2.80;;
35380;SDS011;21486;51.916;8.378;2022-11-11T12:37:40;5.25;;;1.20;;
35380;SDS011;21486;51.916;8.378;2022-11-11T12:40:40;3.90;;;1.17;;
35380;SDS011;21486;51.916;8.378;2022-11-11T12:43:22;5.55;;;1.13;;
35380;SDS011;21486;51.916;8.378;2022-11-11T12:49:38;4.90;;;1.20;;
35380;SDS011;21486;51.916;8.378;2022-11-11T12:54:32;4.20;;;1.00;;
35380;SDS011;21486;51.916;8.378;2022-11-11T12:57:22;4.50;;;1.20;;
35380;SDS011;21486;51.916;8.378;2022-11-11T13:05:09;3.50;;;0.93;;
35380;SDS011;21486;51.916;8.378;2022-11-11T13:08:51;5.38;;;1.23;;
35380;SDS011;21486;51.916;8.378;2022-11-11T13:16:10;3.60;;;1.00;;
35380;SDS011;21486;51.916;8.378;2022-11-11T13:18:49;2.60;;;1.00;;
35380;SDS011;21486;51.916;8.378;2022-11-11T13:21:23;3.40;;;1.10;;
35380;SDS011;21486;51.916;8.378;2022-11-11T13:23:55;5.45;;;1.20;;
35380;SDS011;21486;51.916;8.378;2022-11-11T13:31:58;4.05;;;1.20;;
35380;SDS011;21486;51.916;8.378;2022-11-11T13:34:28;2.83;;;1.20;;
35380;SDS011;21486;51.916;8.378;2022-11-11T13:36:58;2.73;;;1.20;;
35380;SDS011;21486;51.916;8.378;2022-11-11T13:39:31;3.47;;;1.10;;
35380;SDS011;21486;51.916;8.378;2022-11-11T13:41:59;4.05;;;1.25;;
35380;SDS011;21486;51.916;8.378;2022-11-11T13:44:33;3.33;;;1.00;;
35380;SDS011;21486;51.916;8.378;2022-11-11T13:47:05;3.03;;;1.27;;
35380;SDS011;21486;51.916;8.378;2022-11-11T13:49:35;3.53;;;1.30;;
35380;SDS011;21486;51.916;8.378;2022-11-11T13:55:38;4.45;;;1.13;;
35380;SDS011;21486;51.916;8.378;2022-11-11T13:58:06;9.65;;;1.63;;
35380;SDS011;21486;51.916;8.378;2022-11-11T14:00:56;6.05;;;1.10;;
35380;SDS011;21486;51.916;8.378;2022-11-11T14:06:35;6.77;;;1.57;;
35380;SDS011;21486;51.916;8.378;2022-11-11T14:13:51;8.68;;;1.63;;
35380;SDS011;21486;51.916;8.378;2022-11-11T14:18:58;3.85;;;1.40;;
35380;SDS011;21486;51.916;8.378;2022-11-11T14:21:49;12.30;;;2.55;;
35380;SDS011;21486;51.916;8.378;2022-11-11T14:24:42;13.52;;;2.20;;
35380;SDS011;21486;51.916;8.378;2022-11-11T14:29:36;3.33;;;1.23;;
35380;SDS011;21486;51.916;8.378;2022-11-11T14:40:25;4.20;;;1.48;;
35380;SDS011;21486;51.916;8.378;2022-11-11T14:42:53;6.38;;;2.05;;
35380;SDS011;21486;51.916;8.378;2022-11-11T14:47:49;3.60;;;1.23;;
35380;SDS011;21486;51.916;8.378;2022-11-11T14:53:14;2.72;;;1.23;;
35380;SDS011;21486;51.916;8.378;2022-11-11T14:55:43;8.05;;;1.60;;
35380;SDS011;21486;51.916;8.378;2022-11-11T14:58:17;6.50;;;1.35;;
35380;SDS011;21486;51.916;8.378;2022-11-11T15:00:49;5.15;;;1.70;;
35380;SDS011;21486;51.916;8.378;2022-11-11T15:03:30;4.13;;;1.60;;
35380;SDS011;21486;51.916;8.378;2022-11-11T15:06:09;6.45;;;1.80;;
35380;SDS011;21486;51.916;8.378;2022-11-11T15:09:00;4.78;;;1.70;;
35380;SDS011;21486;51.916;8.378;2022-11-11T15:14:34;7.18;;;2.13;;
35380;SDS011;21486;51.916;8.378;2022-11-11T15:25:05;5.45;;;1.60;;
35380;SDS011;21486;51.916;8.378;2022-11-11T15:27:41;6.93;;;1.80;;
35380;SDS011;21486;51.916;8.378;2022-11-11T15:30:10;7.53;;;2.20;;
35380;SDS011;21486;51.916;8.378;2022-11-11T15:37:56;5.90;;;1.92;;
35380;SDS011;21486;51.916;8.378;2022-11-11T15:40:43;11.23;;;3.25;;
35380;SDS011;21486;51.916;8.378;2022-11-11T15:43:36;7.38;;;2.00;;
35380;SDS011;21486;51.916;8.378;2022-11-11T15:46:03;5.72;;;2.20;;
35380;SDS011;21486;51.916;8.378;2022-11-11T15:51:13;7.75;;;3.60;;
35380;SDS011;21486;51.916;8.378;2022-11-11T15:53:45;10.20;;;3.70;;
35380;SDS011;21486;51.916;8.378;2022-11-11T15:56:10;8.00;;;3.67;;
35380;SDS011;21486;51.916;8.378;2022-11-11T15:58:36;11.00;;;3.37;;
35380;SDS011;21486;51.916;8.378;2022-11-11T16:01:03;12.45;;;3.28;;
35380;SDS011;21486;51.916;8.378;2022-11-11T16:03:38;5.97;;;2.70;;
35380;SDS011;21486;51.916;8.378;2022-11-11T16:06:09;6.85;;;2.65;;
35380;SDS011;21486;51.916;8.378;2022-11-11T16:08:36;8.68;;;2.00;;
35380;SDS011;21486;51.916;8.378;2022-11-11T16:11:08;6.20;;;2.28;;
35380;SDS011;21486;51.916;8.378;2022-11-11T16:13:39;12.47;;;3.10;;
35380;SDS011;21486;51.916;8.378;2022-11-11T16:18:48;10.02;;;2.60;;
35380;SDS011;21486;51.916;8.378;2022-11-11T16:21:26;7.17;;;2.40;;
35380;SDS011;21486;51.916;8.378;2022-11-11T16:23:58;9.32;;;2.10;;
35380;SDS011;21486;51.916;8.378;2022-11-11T16:26:26;5.47;;;2.05;;
35380;SDS011;21486;51.916;8.378;2022-11-11T16:28:52;5.63;;;2.38;;
35380;SDS011;21486;51.916;8.378;2022-11-11T16:37:02;6.60;;;2.97;;
35380;SDS011;21486;51.916;8.378;2022-11-11T16:39:29;12.00;;;2.97;;
35380;SDS011;21486;51.916;8.378;2022-11-11T16:42:19;11.27;;;3.10;;
35380;SDS011;21486;51.916;8.378;2022-11-11T16:44:56;7.18;;;2.88;;
35380;SDS011;21486;51.916;8.378;2022-11-11T16:50:08;7.38;;;2.45;;
35380;SDS011;21486;51.916;8.378;2022-11-11T16:55:21;11.02;;;3.22;;
35380;SDS011;21486;51.916;8.378;2022-11-11T16:57:50;7.95;;;3.03;;
35380;SDS011;21486;51.916;8.378;2022-11-11T17:00:18;7.32;;;3.45;;
35380;SDS011;21486;51.916;8.378;2022-11-11T17:02:45;6.10;;;3.00;;
35380;SDS011;21486;51.916;8.378;2022-11-11T17:05:11;8.23;;;2.83;;
35380;SDS011;21486;51.916;8.378;2022-11-11T17:07:38;12.07;;;4.03;;
35380;SDS011;21486;51.916;8.378;2022-11-11T17:12:40;9.00;;;3.23;;
35380;SDS011;21486;51.916;8.378;2022-11-11T17:15:06;9.27;;;3.87;;
35380;SDS011;21486;51.916;8.378;2022-11-11T17:17:33;10.93;;;3.85;;
35380;SDS011;21486;51.916;8.378;2022-11-11T17:19:59;11.15;;;4.38;;